METAR Data
IDs: Format: Raw Decoded Include TAF

Data at: 1726 UTC 26 Oct 2021

METAR for:KHCR (Heber City Muni, UT, US)
Text:KHCR 261715Z AUTO 29006KT 10SM UP SCT015 BKN029 OVC036 02/00 A2992 RMK AO2
Temperature: 2.0°C ( 36°F)
Dewpoint: 0.0°C ( 32°F) [RH = 87%]
Pressure (altimeter):29.92 inches Hg (1013.3 mb)
Winds:from the WNW (290 degrees) at 7 MPH (6 knots; 3.1 m/s)
Visibility:10 or more sm (16+ km)
Ceiling:2900 feet AGL
Clouds: scattered clouds at 1500 feet AGL, broken clouds at 2900 feet AGL, overcast cloud deck at 3600 feet AGL
Weather:UP (unknown precipitation)
QC Flag:automated observation with no human augmentation